Time;durP1;ratioP1;P1;durP2;ratioP2;P2;SDS_P1;SDS_P2;PMS_P1;PMS_P2;Temp;Humidity;BMP_temperature;BMP_pressure;BME280_temperature;BME280_humidity;BME280_pressure;Samples;Min_cycle;Max_cycle;Signal;HPM_P1;HPM_P2
2021/12/28 00:01:42;;;;;;;;;1.00;1.00;;;;;13.87;71.26;98519.41;6222222;22;45378;-83
2021/12/28 00:04:07;;;;;;;;;2.00;1.00;;;;;13.80;71.59;98522.31;6194098;22;45635;-83
2021/12/28 00:06:33;;;;;;;;;1.00;0.33;;;;;13.72;73.07;98511.00;6191194;22;47052;-83
2021/12/28 00:09:00;;;;;;;;;0.00;0.00;;;;;13.89;72.73;98506.88;6219175;22;44764;-83
2021/12/28 00:11:25;;;;;;;;;0.00;0.00;;;;;13.70;73.47;98512.88;6218108;22;45394;-83
2021/12/28 00:13:52;;;;;;;;;0.75;0.75;;;;;13.67;73.25;98502.28;6218183;22;45259;-82
2021/12/28 00:18:43;;;;;;;;;1.00;1.00;;;;;13.65;73.67;98495.25;6217405;22;45369;-83
2021/12/28 00:21:10;;;;;;;;;1.00;1.00;;;;;13.90;73.15;98500.63;6218615;22;45582;-83
2021/12/28 00:23:40;;;;;;;;;1.67;1.33;;;;;13.78;73.60;98510.78;6193500;22;45381;-83
2021/12/28 00:26:11;;;;;;;;;2.00;1.00;;;;;13.94;73.30;98507.59;6193822;22;46894;-83
2021/12/28 00:28:37;;;;;;;;;2.00;2.00;;;;;13.69;73.57;98510.22;6193059;22;45910;-83
2021/12/28 00:31:03;;;;;;;;;1.00;1.00;;;;;13.63;73.67;98513.97;6220269;22;45362;-83
2021/12/28 00:33:30;;;;;;;;;1.00;0.67;;;;;13.75;73.96;98500.19;6193264;22;45562;-83
2021/12/28 00:35:55;;;;;;;;;2.00;2.00;;;;;13.54;74.25;98495.63;6218638;22;45357;-82
2021/12/28 00:38:24;;;;;;;;;2.33;2.00;;;;;13.62;75.51;98495.38;6219052;22;45410;-83
2021/12/28 00:40:53;;;;;;;;;3.33;3.00;;;;;13.61;75.43;98491.78;6220833;22;45701;-83
2021/12/28 00:43:19;;;;;;;;;1.00;1.00;;;;;13.52;74.70;98486.78;6193460;22;45746;-82
2021/12/28 00:45:46;;;;;;;;;2.00;2.00;;;;;13.57;75.40;98493.72;6222393;22;45649;-83
2021/12/28 00:48:12;;;;;;;;;1.00;1.00;;;;;13.52;75.69;98498.34;6220474;22;45350;-83
2021/12/28 00:50:37;;;;;;;;;1.67;1.67;;;;;13.44;79.70;98500.41;6194066;22;45637;-83
2021/12/28 00:53:04;;;;;;;;;1.00;1.00;;;;;13.56;79.30;98494.63;6219922;22;45318;-83
2021/12/28 00:55:29;;;;;;;;;0.00;0.00;;;;;13.52;76.15;98502.81;6219687;22;45533;-83
2021/12/28 00:57:55;;;;;;;;;1.00;1.00;;;;;13.60;75.61;98516.78;6218109;22;45701;-83
2021/12/28 01:00:27;;;;;;;;;1.00;1.00;;;;;13.79;75.37;98522.34;6190831;22;45327;-83
2021/12/28 01:02:54;;;;;;;;;1.00;1.00;;;;;13.72;75.77;98494.97;6219304;22;45612;-83
2021/12/28 01:05:19;;;;;;;;;1.33;1.33;;;;;13.69;75.65;98500.41;6192782;22;47909;-82
2021/12/28 01:07:46;;;;;;;;;0.75;0.00;;;;;14.04;75.60;98498.31;6193996;22;45437;-82
2021/12/28 01:10:17;;;;;;;;;0.00;0.00;;;;;14.07;75.41;98487.50;6220406;22;45836;-82
2021/12/28 01:12:42;;;;;;;;;1.00;0.00;;;;;13.96;75.72;98497.72;6193869;22;45341;-82
2021/12/28 01:15:09;;;;;;;;;0.00;0.00;;;;;14.00;75.89;98499.38;6221789;22;44935;-82
2021/12/28 01:17:36;;;;;;;;;0.00;0.00;;;;;14.09;75.59;98512.38;6220890;22;45228;-81
2021/12/28 01:20:05;;;;;;;;;0.00;0.00;;;;;14.24;75.26;98500.28;6193460;22;45453;-82
2021/12/28 01:22:31;;;;;;;;;0.00;0.00;;;;;14.20;75.56;98512.88;6220909;22;45615;-82
2021/12/28 01:24:57;;;;;;;;;0.00;0.00;;;;;14.30;75.36;98507.16;6192704;22;47029;-82
2021/12/28 01:27:22;;;;;;;;;0.00;0.00;;;;;14.33;74.87;98499.91;6220285;22;45605;-82
2021/12/28 01:29:47;;;;;;;;;0.00;0.00;;;;;14.34;74.37;98495.44;6219296;22;45324;-82
2021/12/28 01:32:14;;;;;;;;;0.00;0.00;;;;;14.38;73.78;98494.38;6219990;22;45278;-82
2021/12/28 01:34:40;;;;;;;;;0.00;0.00;;;;;14.37;73.82;98498.00;6191352;22;47257;-82
2021/12/28 01:37:05;;;;;;;;;0.00;0.00;;;;;14.35;73.47;98500.72;6191203;22;45910;-82
2021/12/28 01:39:31;;;;;;;;;0.00;0.00;;;;;14.29;73.71;98511.66;6196109;22;45382;-82
2021/12/28 01:41:59;;;;;;;;;0.00;0.00;;;;;14.34;73.44;98514.16;6222583;22;45288;-82
2021/12/28 01:44:24;;;;;;;;;0.00;0.00;;;;;14.28;73.13;98517.94;6194646;22;47244;-82
2021/12/28 01:46:50;;;;;;;;;0.00;0.00;;;;;14.33;73.23;98526.66;6195085;22;45548;-82
2021/12/28 01:49:15;;;;;;;;;0.00;0.00;;;;;14.37;73.15;98530.09;6223368;22;46007;-82
2021/12/28 01:51:41;;;;;;;;;0.00;0.00;;;;;14.36;73.17;98539.03;6222651;22;45299;-82
2021/12/28 01:54:06;;;;;;;;;0.00;0.00;;;;;14.37;73.06;98530.09;6221113;22;45283;-82
2021/12/28 01:56:38;;;;;;;;;0.00;0.00;;;;;14.52;73.15;98534.88;6192576;22;45335;-82
2021/12/28 01:59:04;;;;;;;;;0.00;0.00;;;;;14.37;73.35;98536.31;6219217;22;45778;-83
2021/12/28 02:01:30;;;;;;;;;0.00;0.00;;;;;14.47;73.24;98544.88;6223852;22;44690;-83
2021/12/28 02:03:58;;;;;;;;;0.00;0.00;;;;;14.70;73.02;98561.88;6221999;22;45818;-84
2021/12/28 02:06:25;;;;;;;;;0.00;0.00;;;;;14.50;73.05;98573.28;6222455;22;45355;-83
2021/12/28 02:08:52;;;;;;;;;0.00;0.00;;;;;14.60;72.73;98588.09;6222743;22;45698;-83
2021/12/28 02:11:17;;;;;;;;;0.00;0.00;;;;;14.56;72.59;98583.78;6194317;22;45451;-83
2021/12/28 02:13:43;;;;;;;;;0.00;0.00;;;;;14.62;72.48;98599.63;6195057;22;46589;-83
2021/12/28 02:16:10;;;;;;;;;0.00;0.00;;;;;14.70;71.52;98577.94;6222632;22;45694;-83
2021/12/28 02:18:36;;;;;;;;;2.00;1.00;;;;;14.58;70.42;98603.34;6221590;22;45410;-84
2021/12/28 02:21:06;;;;;;;;;0.00;0.00;;;;;14.68;70.33;98591.38;6222312;22;45729;-84
2021/12/28 02:23:32;;;;;;;;;0.00;0.00;;;;;14.55;70.16;98604.31;6196399;22;47933;-83
2021/12/28 02:25:58;;;;;;;;;0.00;0.00;;;;;14.47;69.79;98611.72;6223726;22;45473;-83
2021/12/28 02:29:01;;;;;;;;;0.00;0.00;;;;;14.86;69.31;98629.94;6194421;22;45783;-83
2021/12/28 02:31:27;;;;;;;;;0.00;0.00;;;;;14.58;69.60;98636.34;6220285;22;45358;-84
2021/12/28 02:33:54;;;;;;;;;0.00;0.00;;;;;14.50;69.47;98635.72;6193393;22;46811;-84
2021/12/28 02:36:19;;;;;;;;;0.00;0.00;;;;;14.48;69.23;98642.91;6194423;22;45425;-84
2021/12/28 02:38:46;;;;;;;;;0.00;0.00;;;;;14.56;68.78;98631.94;6192742;22;44798;-84
2021/12/28 02:41:14;;;;;;;;;0.00;0.00;;;;;14.74;68.87;98652.69;6193382;22;45426;-83
2021/12/28 02:43:40;;;;;;;;;0.00;0.00;;;;;14.55;68.36;98663.16;6220080;22;45529;-84
2021/12/28 02:46:07;;;;;;;;;1.00;1.00;;;;;14.64;68.48;98671.81;6193272;22;46124;-84
2021/12/28 02:48:34;;;;;;;;;0.00;0.00;;;;;14.61;68.24;98686.16;6193486;22;45436;-84
2021/12/28 02:51:06;;;;;;;;;0.00;0.00;;;;;14.74;68.23;98674.09;6192695;22;45401;-84
2021/12/28 02:53:32;;;;;;;;;0.00;0.00;;;;;14.54;68.40;98685.50;6193003;22;46564;-84
2021/12/28 02:55:58;;;;;;;;;0.00;0.00;;;;;14.65;68.13;98700.31;6196148;22;45509;-84
2021/12/28 02:58:32;;;;;;;;;0.00;0.00;;;;;14.62;67.97;98709.31;6195191;22;44752;-84
2021/12/28 03:01:14;;;;;;;;;0.00;0.00;;;;;14.86;67.86;98709.38;6196034;22;45608;-84
2021/12/28 03:03:40;;;;;;;;;0.00;0.00;;;;;14.74;67.92;98716.03;6195185;22;47166;-84
2021/12/28 03:06:08;;;;;;;;;1.75;0.00;;;;;14.85;67.57;98707.63;6222676;22;45731;-84
2021/12/28 03:08:37;;;;;;;;;0.25;0.25;;;;;15.03;67.18;98722.13;6222581;22;45022;-84
2021/12/28 03:11:05;;;;;;;;;0.00;0.00;;;;;14.92;67.38;98707.34;6196072;22;44831;-83
2021/12/28 03:13:37;;;;;;;;;0.00;0.00;;;;;15.07;67.15;98721.09;6196096;22;46685;-84
2021/12/28 03:16:04;;;;;;;;;0.00;0.00;;;;;14.82;67.04;98713.94;6198610;22;45288;-83
2021/12/28 03:18:29;;;;;;;;;1.25;1.00;;;;;14.76;67.25;98708.81;6197434;22;45268;-84
2021/12/28 03:20:55;;;;;;;;;0.00;0.00;;;;;14.80;67.52;98705.09;6196696;22;45328;-84
2021/12/28 03:23:24;;;;;;;;;0.00;0.00;;;;;15.00;67.07;98707.94;6195595;22;47386;-84
2021/12/28 03:25:50;;;;;;;;;0.00;0.00;;;;;14.84;67.60;98712.09;6195168;22;45226;-84
2021/12/28 03:28:18;;;;;;;;;0.50;0.50;;;;;15.09;67.12;98719.22;6193916;22;45398;-84
2021/12/28 03:30:44;;;;;;;;;0.75;0.75;;;;;15.02;67.55;98717.72;6219837;22;45331;-84
2021/12/28 03:34:00;;;;;;;;;0.00;0.00;;;;;15.44;66.28;98717.06;6192456;22;47441;-84
2021/12/28 03:36:28;;;;;;;;;0.00;0.00;;;;;15.28;66.91;98728.34;6192487;22;45401;-84
2021/12/28 03:38:56;;;;;;;;;0.25;0.00;;;;;15.13;66.59;98729.78;6193523;22;45854;-84
2021/12/28 03:41:24;;;;;;;;;0.00;0.00;;;;;15.24;66.76;98729.38;6192719;22;45382;-83
2021/12/28 03:43:52;;;;;;;;;0.00;0.00;;;;;15.18;66.76;98726.94;6193826;22;46972;-84
2021/12/28 03:47:01;;;;;;;;;0.00;0.00;;;;;15.44;66.03;98736.66;6221094;22;45473;-84
2021/12/28 03:49:26;;;;;;;;;1.00;0.00;;;;;15.14;66.53;98741.38;6221457;22;45517;-84
2021/12/28 03:51:52;;;;;;;;;0.00;0.00;;;;;15.11;66.50;98737.00;6194189;22;45699;-84
2021/12/28 03:54:17;;;;;;;;;0.00;0.00;;;;;15.15;66.24;98751.16;6221041;22;45541;-84
2021/12/28 03:56:43;;;;;;;;;1.00;1.00;;;;;15.15;66.32;98743.13;6193069;22;45621;-84
2021/12/28 03:59:15;;;;;;;;;0.00;0.00;;;;;15.49;65.80;98747.19;6192767;22;45346;-84
2021/12/28 04:01:41;;;;;;;;;0.00;0.00;;;;;15.14;66.03;98754.75;6221220;22;45730;-84
2021/12/28 04:04:06;;;;;;;;;0.00;0.00;;;;;15.18;65.85;98749.22;6193669;22;47993;-84
2021/12/28 04:06:32;;;;;;;;;0.00;0.00;;;;;15.20;66.10;98747.38;6220784;22;45623;-84
2021/12/28 04:09:00;;;;;;;;;0.00;0.00;;;;;15.35;65.92;98750.41;6192563;22;45268;-84
2021/12/28 04:11:25;;;;;;;;;0.00;0.00;;;;;15.22;65.97;98755.34;6221253;22;45436;-84
2021/12/28 04:13:54;;;;;;;;;0.00;0.00;;;;;15.36;65.80;98753.03;6193411;22;46922;-84
2021/12/28 04:16:20;;;;;;;;;0.00;0.00;;;;;15.24;65.88;98758.84;6221267;22;45500;-84
2021/12/28 04:18:46;;;;;;;;;0.00;0.00;;;;;15.24;65.72;98742.78;6220749;22;45318;-84
2021/12/28 04:22:01;;;;;;;;;1.25;1.00;;;;;15.59;64.41;98748.59;6194732;22;45614;-84
2021/12/28 04:24:27;;;;;;;;;0.00;0.00;;;;;15.24;65.73;98756.16;6194126;22;47184;-84
2021/12/28 04:26:52;;;;;;;;;0.50;0.00;;;;;15.27;65.50;98752.50;6220717;22;45336;-84
2021/12/28 04:29:18;;;;;;;;;0.00;0.00;;;;;15.33;65.52;98774.59;6194135;22;45343;-84
2021/12/28 04:31:43;;;;;;;;;0.00;0.00;;;;;15.34;64.90;98775.44;6220125;22;45336;-84
2021/12/28 04:34:10;;;;;;;;;0.00;0.00;;;;;15.58;65.09;98779.88;6218816;22;44854;-84
2021/12/28 04:36:35;;;;;;;;;1.25;0.00;;;;;15.36;64.72;98778.94;6193348;22;45413;-84
2021/12/28 04:39:01;;;;;;;;;0.75;0.75;;;;;15.42;64.78;98775.16;6222194;22;45430;-84
2021/12/28 04:41:26;;;;;;;;;0.00;0.00;;;;;15.42;64.87;98785.88;6195522;22;45480;-84
2021/12/28 04:43:52;;;;;;;;;0.00;0.00;;;;;15.31;64.99;98764.84;6195803;22;46846;-84
2021/12/28 04:46:18;;;;;;;;;2.00;0.00;;;;;15.62;65.01;98774.44;6195549;22;45725;-84
2021/12/28 04:48:44;;;;;;;;;0.00;0.00;;;;;15.46;64.86;98768.78;6195953;22;45256;-84
2021/12/28 04:51:09;;;;;;;;;0.00;0.00;;;;;15.46;64.75;98768.78;6196516;22;45438;-84
2021/12/28 04:53:35;;;;;;;;;2.00;0.00;;;;;15.47;64.39;98759.78;6222708;22;45398;-84
2021/12/28 04:56:00;;;;;;;;;0.00;0.00;;;;;15.48;64.10;98765.09;6222551;22;45272;-84
2021/12/28 04:58:26;;;;;;;;;0.50;0.50;;;;;15.52;64.18;98765.84;6221787;22;45691;-84
2021/12/28 05:00:52;;;;;;;;;1.00;1.00;;;;;15.56;63.59;98767.50;6194856;22;44843;-84
2021/12/28 05:03:19;;;;;;;;;0.50;0.50;;;;;15.62;64.04;98786.00;6195228;22;46977;-84
2021/12/28 05:05:51;;;;;;;;;0.00;0.00;;;;;15.73;63.51;98802.56;6196383;22;45452;-84
2021/12/28 05:08:18;;;;;;;;;0.00;0.00;;;;;15.66;63.86;98786.78;6196078;22;45411;-84
2021/12/28 05:10:44;;;;;;;;;1.50;0.50;;;;;15.59;63.88;98781.66;6194128;22;45358;-84
2021/12/28 05:13:10;;;;;;;;;0.00;0.00;;;;;15.74;63.44;98795.44;6218210;22;46875;-84
2021/12/28 05:15:36;;;;;;;;;0.00;0.00;;;;;15.67;63.41;98794.72;6221047;22;45370;-84
2021/12/28 05:18:04;;;;;;;;;0.25;0.25;;;;;15.89;63.34;98815.41;6220980;22;45334;-84
2021/12/28 05:20:29;;;;;;;;;0.00;0.00;;;;;15.69;63.09;98819.66;6193701;22;45486;-84
2021/12/28 05:22:55;;;;;;;;;0.25;0.00;;;;;15.69;63.36;98822.34;6220973;22;45291;-84
2021/12/28 05:25:20;;;;;;;;;1.00;1.00;;;;;15.70;63.14;98825.91;6193312;22;45529;-84
2021/12/28 05:27:46;;;;;;;;;0.00;0.00;;;;;15.73;62.97;98848.13;6221847;22;45366;-84
2021/12/28 05:30:13;;;;;;;;;5.00;1.00;;;;;15.90;62.55;98831.44;6194228;22;45544;-84
2021/12/28 05:32:38;;;;;;;;;1.00;0.75;;;;;15.68;62.73;98830.47;6194051;22;47478;-84
2021/12/28 05:35:07;;;;;;;;;1.00;1.00;;;;;15.89;62.55;98843.06;6193899;22;45787;-84
2021/12/28 05:37:34;;;;;;;;;0.75;0.00;;;;;15.81;63.10;98839.81;6222362;22;45676;-84
2021/12/28 05:39:59;;;;;;;;;3.00;1.00;;;;;15.75;62.94;98843.63;6222432;22;45750;-84
2021/12/28 05:43:02;;;;;;;;;1.50;0.50;;;;;16.09;62.34;98845.00;6223866;22;45361;-83
2021/12/28 05:45:27;;;;;;;;;0.25;0.25;;;;;15.71;62.73;98855.31;6225182;22;45369;-84
2021/12/28 05:47:52;;;;;;;;;0.00;0.00;;;;;15.71;62.73;98854.44;6195628;22;45621;-84
2021/12/28 05:50:18;;;;;;;;;2.00;0.00;;;;;15.75;62.11;98862.38;6195491;22;44787;-84
2021/12/28 05:52:43;;;;;;;;;0.25;0.25;;;;;15.78;62.37;98864.94;6193508;22;46714;-84
2021/12/28 05:55:10;;;;;;;;;0.00;0.00;;;;;15.94;61.76;98848.28;6218899;22;45659;-84
2021/12/28 05:57:36;;;;;;;;;0.00;0.00;;;;;15.75;61.73;98851.66;6221227;22;45756;-84
2021/12/28 06:00:08;;;;;;;;;1.00;1.00;;;;;16.01;62.24;98863.19;6194868;22;45356;-84
2021/12/28 06:02:33;;;;;;;;;0.00;0.00;;;;;15.84;61.99;98857.59;6222179;22;45441;-84
2021/12/28 06:04:58;;;;;;;;;1.00;1.00;;;;;15.89;61.79;98875.22;6222278;22;45411;-84
2021/12/28 06:07:27;;;;;;;;;0.00;0.00;;;;;15.89;60.74;98863.66;6224032;22;45295;-84
2021/12/28 06:09:54;;;;;;;;;0.25;0.25;;;;;15.91;60.98;98865.31;6195714;22;45533;-84
2021/12/28 06:12:19;;;;;;;;;1.25;0.75;;;;;15.88;60.89;98872.63;6193858;22;47105;-84
2021/12/28 06:14:45;;;;;;;;;1.00;0.50;;;;;15.90;61.03;98882.38;6195118;22;45855;-84
2021/12/28 06:17:10;;;;;;;;;2.00;1.00;;;;;15.88;60.45;98891.41;6196061;22;45684;-84
2021/12/28 06:19:36;;;;;;;;;1.25;0.50;;;;;15.85;61.01;98899.53;6224529;22;45141;-84
2021/12/28 06:22:01;;;;;;;;;1.75;0.75;;;;;15.80;60.96;98884.50;6195729;22;45427;-84
2021/12/28 06:24:27;;;;;;;;;1.00;1.00;;;;;15.82;60.75;98895.19;6194295;22;45291;-84
2021/12/28 06:26:53;;;;;;;;;1.50;0.50;;;;;15.95;60.88;98900.94;6194445;22;45438;-84
2021/12/28 06:29:18;;;;;;;;;1.50;1.00;;;;;15.65;61.04;98895.75;6196542;22;45410;-84
2021/12/28 06:31:44;;;;;;;;;2.25;0.75;;;;;15.67;60.92;98911.78;6223475;22;45665;-84
2021/12/28 06:34:09;;;;;;;;;1.00;1.00;;;;;15.57;61.09;98911.22;6221970;22;45321;-84
2021/12/28 06:36:35;;;;;;;;;2.00;0.00;;;;;15.50;61.32;98921.28;6194877;22;45657;-84
2021/12/28 06:39:03;;;;;;;;;3.00;1.00;;;;;15.67;60.35;98922.50;6195520;22;45363;-84
2021/12/28 06:41:29;;;;;;;;;2.75;2.50;;;;;15.37;60.60;98936.03;6195711;22;47233;-84
2021/12/28 06:43:55;;;;;;;;;1.50;1.50;;;;;15.34;60.75;98939.69;6194456;22;45398;-82
2021/12/28 06:46:20;;;;;;;;;1.50;0.75;;;;;15.30;60.76;98942.53;6224176;22;45832;-84
2021/12/28 06:48:46;;;;;;;;;0.25;0.25;;;;;15.30;61.00;98943.41;6203016;22;45512;-84
2021/12/28 06:51:13;;;;;;;;;1.00;1.00;;;;;15.51;60.57;98957.00;6198718;22;47573;-84
2021/12/28 06:53:40;;;;;;;;;4.33;3.00;;;;;15.37;60.97;98946.75;6225010;22;45335;-84
2021/12/28 06:56:06;;;;;;;;;3.00;2.00;;;;;15.40;60.38;98931.44;6224830;22;45386;-83
2021/12/28 06:58:31;;;;;;;;;4.00;2.00;;;;;15.47;60.46;98947.31;6222895;22;45486;-84
2021/12/28 07:00:57;;;;;;;;;2.50;2.00;;;;;15.51;60.23;98938.25;6196615;22;48083;-83
2021/12/28 07:03:24;;;;;;;;;2.25;2.00;;;;;15.62;60.46;98949.47;6196929;22;45436;-83
2021/12/28 07:05:49;;;;;;;;;1.00;1.00;;;;;15.52;60.38;98940.88;6223134;22;44681;-83
2021/12/28 07:08:15;;;;;;;;;1.75;1.75;;;;;15.57;59.42;98946.97;6196845;22;45486;-83
2021/12/28 07:10:42;;;;;;;;;3.00;1.00;;;;;15.55;59.75;98955.94;6196091;22;46592;-83
2021/12/28 07:13:07;;;;;;;;;1.25;1.00;;;;;15.49;58.97;98957.06;6195107;22;45391;-83
2021/12/28 07:15:33;;;;;;;;;0.75;0.75;;;;;15.48;59.58;98954.44;6221064;22;45689;-84
2021/12/28 07:17:59;;;;;;;;;3.75;2.75;;;;;15.48;59.34;98943.72;6195587;22;45451;-84
2021/12/28 07:20:24;;;;;;;;;2.50;2.00;;;;;15.45;60.06;98950.06;6221109;22;45441;-83
2021/12/28 07:22:49;;;;;;;;;2.50;2.50;;;;;15.51;59.68;98955.22;6220372;22;45438;-83
2021/12/28 07:25:16;;;;;;;;;1.00;1.00;;;;;15.69;59.93;98961.69;6194496;22;44807;-83
2021/12/28 07:27:42;;;;;;;;;0.50;0.25;;;;;15.52;60.18;98964.13;6196327;22;45334;-83
2021/12/28 07:30:10;;;;;;;;;3.25;0.00;;;;;15.67;59.59;98968.91;6196089;22;48208;-83
2021/12/28 07:32:36;;;;;;;;;2.50;2.00;;;;;15.57;60.25;98978.22;6196624;22;45322;-84
2021/12/28 07:35:02;;;;;;;;;1.00;1.00;;;;;15.65;60.19;98975.28;6196615;22;45395;-84
2021/12/28 07:37:28;;;;;;;;;1.50;1.50;;;;;15.82;60.23;98980.97;6195977;22;45424;-84
2021/12/28 07:39:54;;;;;;;;;2.00;2.00;;;;;15.71;59.84;98972.38;6221856;22;47021;-84
2021/12/28 07:42:20;;;;;;;;;2.00;0.75;;;;;15.88;59.88;98979.88;6196110;22;45473;-84
2021/12/28 07:44:46;;;;;;;;;1.00;1.00;;;;;15.72;59.75;98977.72;6195936;22;45425;-84
2021/12/28 07:47:11;;;;;;;;;2.00;0.75;;;;;15.74;59.63;98999.97;6196848;22;44789;-83
2021/12/28 07:49:37;;;;;;;;;3.75;2.00;;;;;15.65;59.77;98997.56;6172042;22;46820;-83
2021/12/28 07:52:03;;;;;;;;;1.25;1.00;;;;;15.75;60.28;99022.28;6195827;22;45671;-84
2021/12/28 07:54:28;;;;;;;;;1.00;1.00;;;;;15.73;60.37;99038.41;6198481;22;45366;-84
2021/12/28 07:56:54;;;;;;;;;2.00;0.75;;;;;15.76;60.52;99024.94;6224387;22;45170;-83
2021/12/28 07:59:19;;;;;;;;;2.00;1.50;;;;;15.77;60.18;99015.97;6193635;22;47282;-83
2021/12/28 08:01:45;;;;;;;;;2.75;2.00;;;;;15.82;60.41;99021.16;6194709;22;45794;-83
2021/12/28 08:04:10;;;;;;;;;1.75;0.25;;;;;15.83;60.42;99040.78;6195096;22;45926;-83
2021/12/28 08:06:36;;;;;;;;;1.00;1.00;;;;;15.79;60.45;99046.28;6195796;22;45429;-83
2021/12/28 08:09:02;;;;;;;;;1.00;1.00;;;;;15.77;60.78;99032.06;6195377;22;46946;-85
2021/12/28 08:12:05;;;;;;;;;1.00;0.00;;;;;16.09;60.33;99039.88;6197442;22;45783;-84
2021/12/28 08:14:30;;;;;;;;;3.25;2.25;;;;;15.76;60.84;99043.69;6226727;22;45406;-84
2021/12/28 08:16:56;;;;;;;;;2.50;0.00;;;;;15.76;60.96;99056.22;6200001;22;45759;-84
2021/12/28 08:19:21;;;;;;;;;1.00;1.00;;;;;15.79;60.74;99059.69;6203034;22;45382;-84
2021/12/28 08:21:47;;;;;;;;;1.00;0.00;;;;;15.83;60.78;99060.44;6201837;22;45448;-83
2021/12/28 08:24:13;;;;;;;;;1.00;1.00;;;;;15.86;60.98;99072.88;6173666;22;45691;-83
2021/12/28 08:26:38;;;;;;;;;0.75;0.75;;;;;15.81;61.11;99081.03;6222236;22;45326;-83
2021/12/28 08:29:04;;;;;;;;;0.25;0.25;;;;;15.87;61.11;99069.25;6222881;22;45416;-84
2021/12/28 08:31:29;;;;;;;;;2.00;1.00;;;;;15.89;60.71;99091.53;6222335;22;45365;-83
2021/12/28 08:33:55;;;;;;;;;0.25;0.25;;;;;15.88;61.06;99093.34;6225127;22;45300;-83
2021/12/28 08:36:20;;;;;;;;;1.00;1.00;;;;;15.79;61.88;99083.81;6223465;22;45677;-83
2021/12/28 08:38:54;;;;;;;;;0.25;0.00;;;;;16.13;61.58;99114.81;6199535;22;46482;-85
2021/12/28 08:41:22;;;;;;;;;0.00;0.00;;;;;15.78;62.14;99103.47;6234459;22;44733;-83
2021/12/28 08:43:47;;;;;;;;;0.50;0.50;;;;;15.82;62.28;99112.31;6226382;22;44726;-83
2021/12/28 08:46:14;;;;;;;;;0.00;0.00;;;;;15.92;62.75;99105.69;6198832;22;45500;-83
2021/12/28 08:48:40;;;;;;;;;1.25;0.25;;;;;15.79;62.67;99120.44;6199575;22;47185;-83
2021/12/28 08:51:06;;;;;;;;;1.50;1.50;;;;;15.72;62.56;99119.78;6197496;22;45410;-83
2021/12/28 08:53:32;;;;;;;;;2.00;1.00;;;;;15.73;63.11;99115.28;6199390;22;45738;-83
2021/12/28 08:55:58;;;;;;;;;0.00;0.00;;;;;15.72;62.29;99103.69;6199410;22;44841;-84
2021/12/28 08:58:23;;;;;;;;;0.00;0.00;;;;;15.68;62.44;99096.66;6198415;22;45400;-83
2021/12/28 09:00:55;;;;;;;;;1.00;1.00;;;;;15.72;62.24;99108.16;6224683;22;45215;-83
2021/12/28 09:03:20;;;;;;;;;0.25;0.25;;;;;15.71;62.02;99106.38;6222721;22;45296;-84
2021/12/28 09:05:46;;;;;;;;;0.75;0.75;;;;;15.71;61.78;99096.53;6225756;22;45765;-84
2021/12/28 09:08:13;;;;;;;;;2.00;1.00;;;;;15.78;61.53;99108.84;6198197;22;45308;-84
2021/12/28 09:10:39;;;;;;;;;0.00;0.00;;;;;15.79;60.64;99110.63;6227239;22;45457;-84
2021/12/28 09:13:07;;;;;;;;;0.00;0.00;;;;;15.75;59.95;99125.03;6202718;22;45338;-84
2021/12/28 09:15:35;;;;;;;;;0.00;0.00;;;;;15.91;60.48;99122.69;6227105;22;44750;-83
2021/12/28 09:18:02;;;;;;;;;1.25;1.00;;;;;15.77;60.22;99107.09;6227856;22;45465;-84
2021/12/28 09:20:27;;;;;;;;;1.00;1.00;;;;;15.77;59.47;99107.09;6201511;22;45310;-83
2021/12/28 09:22:56;;;;;;;;;6.25;2.00;;;;;15.87;59.87;99112.13;6197507;22;45445;-84
2021/12/28 09:25:22;;;;;;;;;0.75;0.75;;;;;15.92;59.61;99123.59;6198434;22;45383;-84
2021/12/28 09:27:48;;;;;;;;;0.00;0.00;;;;;15.85;59.52;99130.94;6171894;22;48086;-84
2021/12/28 09:30:16;;;;;;;;;2.00;0.25;;;;;15.85;58.72;99119.34;6226882;22;45393;-83
2021/12/28 09:32:42;;;;;;;;;1.00;1.00;;;;;15.89;58.38;99121.00;6226572;22;45266;-84
2021/12/28 09:35:09;;;;;;;;;3.00;1.00;;;;;15.97;58.40;99116.25;6198064;22;45384;-84
2021/12/28 09:40:57;;;;;;;;;3.00;1.75;;;;;15.98;57.88;99140.34;6227600;22;45429;-85
2021/12/28 09:43:22;;;;;;;;;1.00;1.00;;;;;16.02;57.77;99134.88;6199996;22;45408;-84
2021/12/28 09:45:48;;;;;;;;;6.00;2.00;;;;;16.01;57.02;99142.03;6198548;22;45351;-85
2021/12/28 09:48:14;;;;;;;;;2.75;1.75;;;;;16.06;56.94;99134.72;6195108;22;47187;-85
2021/12/28 09:50:47;;;;;;;;;3.50;1.00;;;;;16.31;56.05;99133.88;6222285;22;45315;-84
2021/12/28 09:53:14;;;;;;;;;5.25;2.00;;;;;16.17;56.58;99147.75;6195761;22;45315;-84
2021/12/28 09:55:40;;;;;;;;;4.50;4.00;;;;;16.02;56.80;99154.53;6223705;22;45427;-84
2021/12/28 09:58:06;;;;;;;;;3.75;3.75;;;;;16.04;56.49;99159.81;6222804;22;45790;-82
2021/12/28 10:00:31;;;;;;;;;1.50;1.50;;;;;16.05;55.19;99154.41;6225115;22;45721;-85
2021/12/28 10:06:25;;;;;;;;;3.50;2.00;;;;;16.26;54.76;99159.97;6223281;22;45741;-85
2021/12/28 10:09:11;;;;;;;;;2.50;2.50;;;;;16.51;54.03;99174.28;6197153;22;47454;-84
2021/12/28 10:11:48;;;;;;;;;5.00;3.50;;;;;16.39;53.88;99169.34;6196121;22;45963;-85
2021/12/28 10:14:26;;;;;;;;;3.25;3.00;;;;;16.40;53.87;99171.09;6222409;22;45366;-85
2021/12/28 10:16:58;;;;;;;;;3.00;3.00;;;;;16.35;53.38;99162.34;6196271;22;45724;-84
2021/12/28 10:19:40;;;;;;;;;4.00;2.50;;;;;16.34;53.92;99182.03;6196508;22;47854;-84
2021/12/28 10:22:22;;;;;;;;;10.25;3.00;;;;;16.32;52.04;99179.44;6174489;22;45218;-84
2021/12/28 10:24:54;;;;;;;;;4.75;2.25;;;;;16.15;53.27;99196.09;6196087;22;45625;-84
2021/12/28 10:27:22;;;;;;;;;2.25;1.75;;;;;16.14;52.29;99175.56;6197310;22;44746;-85
2021/12/28 10:29:48;;;;;;;;;4.25;3.00;;;;;16.07;53.73;99187.41;6196624;22;46868;-85
2021/12/28 10:32:27;;;;;;;;;8.75;2.75;;;;;16.31;53.38;99191.09;6199551;22;45350;-85
2021/12/28 10:34:58;;;;;;;;;5.00;3.25;;;;;16.07;53.32;99192.78;6198539;22;45390;-84
2021/12/28 10:37:36;;;;;;;;;6.00;3.00;;;;;16.33;53.03;99185.66;6196046;22;45374;-84
2021/12/28 10:40:07;;;;;;;;;9.75;4.75;;;;;16.18;53.59;99192.44;6196656;22;45445;-84
2021/12/28 10:42:37;;;;;;;;;5.00;4.75;;;;;16.42;52.89;99196.09;6222165;22;45319;-85
2021/12/28 10:45:06;;;;;;;;;6.50;3.25;;;;;16.34;52.87;99200.81;6195353;22;45450;-85
2021/12/28 10:47:32;;;;;;;;;8.00;4.75;;;;;16.09;51.92;99184.69;6196153;22;45327;-85
2021/12/28 10:50:00;;;;;;;;;2.75;2.75;;;;;16.24;52.91;99199.38;6196950;22;47001;-85
2021/12/28 10:52:37;;;;;;;;;3.00;3.00;;;;;16.30;52.81;99180.41;6196842;22;45766;-85
2021/12/28 10:55:25;;;;;;;;;4.75;3.00;;;;;16.67;52.17;99196.09;6198984;22;44858;-85
2021/12/28 10:57:52;;;;;;;;;4.50;2.75;;;;;16.43;51.82;99213.06;6221900;22;45358;-84
2021/12/28 11:00:25;;;;;;;;;7.00;3.75;;;;;16.56;52.54;99209.91;6197277;22;45328;-84
2021/12/28 11:03:13;;;;;;;;;6.00;5.25;;;;;16.44;51.14;99190.66;6227725;22;45409;-84
2021/12/28 11:05:39;;;;;;;;;5.33;3.67;;;;;16.26;52.79;99184.13;6198389;22;45339;-85
2021/12/28 11:08:09;;;;;;;;;4.75;4.75;;;;;16.38;52.71;99202.47;6196887;22;45412;-84
2021/12/28 11:10:42;;;;;;;;;6.75;5.25;;;;;16.37;52.44;99203.41;6197916;22;46937;-84
2021/12/28 11:13:07;;;;;;;;;3.75;3.00;;;;;16.16;52.14;99211.25;6176762;22;45398;-85
2021/12/28 11:15:37;;;;;;;;;3.50;2.25;;;;;16.14;52.60;99213.13;6198972;22;44828;-84
2021/12/28 11:18:23;;;;;;;;;5.25;5.25;;;;;16.45;52.08;99216.56;6201848;22;45362;-85
2021/12/28 11:20:55;;;;;;;;;2.25;2.25;;;;;16.15;52.59;99212.19;6223173;22;45454;-85
2021/12/28 11:23:23;;;;;;;;;6.00;4.75;;;;;16.23;51.63;99230.69;6197938;22;45236;-85
2021/12/28 11:26:07;;;;;;;;;7.33;7.33;;;;;16.33;51.34;99221.41;6196538;22;44917;-85
2021/12/28 11:28:34;;;;;;;;;4.00;3.00;;;;;16.08;51.70;99239.25;6198965;22;45416;-84
2021/12/28 11:31:13;;;;;;;;;9.67;5.00;;;;;16.31;52.03;99252.78;6196053;22;46906;-84
2021/12/28 11:33:48;;;;;;;;;4.75;3.75;;;;;16.39;49.99;99261.44;6195764;22;45887;-84
2021/12/28 11:36:15;;;;;;;;;3.25;2.25;;;;;16.30;51.08;99248.38;6197348;22;44884;-84
2021/12/28 11:38:41;;;;;;;;;3.25;3.25;;;;;16.25;51.46;99231.53;6201019;22;45560;-84
2021/12/28 11:41:07;;;;;;;;;4.00;3.00;;;;;16.42;51.02;99254.22;6224432;22;45349;-84
2021/12/28 11:43:35;;;;;;;;;3.25;3.25;;;;;16.67;50.90;99251.59;6223807;22;44718;-84
2021/12/28 11:46:01;;;;;;;;;2.50;2.50;;;;;16.63;49.94;99247.28;6196533;22;45429;-84
2021/12/28 11:51:51;;;;;;;;;2.75;2.75;;;;;16.91;50.04;99253.44;6229327;22;45216;-83